createdAt,value
2019-03-19T00:00:36.197Z,5.00
2019-03-19T00:03:04.527Z,3.77
2019-03-19T00:05:32.007Z,4.83
2019-03-19T00:07:59.562Z,5.57
2019-03-19T00:10:27.806Z,4.57
2019-03-19T00:12:55.265Z,5.97
2019-03-19T00:15:22.725Z,5.17
2019-03-19T00:17:50.201Z,4.37
2019-03-19T00:20:17.679Z,4.23
2019-03-19T00:22:45.202Z,4.80
2019-03-19T00:25:12.670Z,4.60
2019-03-19T00:27:40.143Z,3.70
2019-03-19T00:30:09.107Z,5.07
2019-03-19T00:32:36.943Z,4.17
2019-03-19T00:35:05.903Z,6.27
2019-03-19T00:37:33.441Z,4.87
2019-03-19T00:40:00.907Z,6.17
2019-03-19T00:42:28.368Z,5.97
2019-03-19T00:44:55.814Z,3.97
2019-03-19T00:47:23.350Z,5.67
2019-03-19T00:49:50.801Z,4.83
2019-03-19T00:52:19.027Z,7.70
2019-03-19T00:54:46.544Z,5.93
2019-03-19T00:57:14.004Z,2.47
2019-03-19T00:59:41.472Z,4.17
2019-03-19T01:02:08.938Z,3.20
2019-03-19T01:04:36.905Z,3.77
2019-03-19T01:07:04.385Z,7.23
2019-03-19T01:09:32.627Z,3.50
2019-03-19T01:12:00.109Z,6.03
2019-03-19T01:14:27.585Z,3.70
2019-03-19T01:16:55.853Z,4.70
2019-03-19T01:19:23.319Z,4.23
2019-03-19T01:21:50.873Z,8.57
2019-03-19T01:24:18.337Z,3.67
2019-03-19T01:26:45.807Z,6.23
2019-03-19T01:29:13.272Z,5.55
2019-03-19T01:31:41.509Z,4.97
2019-03-19T01:34:09.003Z,3.47
2019-03-19T01:36:36.560Z,4.03
2019-03-19T01:39:04.020Z,3.77
2019-03-19T01:41:31.493Z,3.07
2019-03-19T01:43:59.746Z,5.60
2019-03-19T01:46:27.206Z,5.20
2019-03-19T01:48:54.666Z,4.13
2019-03-19T01:51:22.127Z,3.90
2019-03-19T01:53:49.615Z,4.03
2019-03-19T01:56:17.084Z,5.10
2019-03-19T01:58:44.545Z,3.63
2019-03-19T02:01:13.509Z,4.20
2019-03-19T02:03:41.000Z,5.53
2019-03-19T02:06:08.463Z,6.40
2019-03-19T02:08:36.025Z,4.80
2019-03-19T02:11:03.809Z,6.40
2019-03-19T02:13:32.041Z,5.30
2019-03-19T02:15:59.537Z,6.43
2019-03-19T02:18:27.097Z,4.40
2019-03-19T02:20:54.669Z,4.17
2019-03-19T02:23:22.126Z,4.90
2019-03-19T02:25:50.354Z,7.17
2019-03-19T02:28:18.639Z,3.90
2019-03-19T02:30:46.113Z,3.37
2019-03-19T02:33:13.575Z,6.97
2019-03-19T02:35:41.072Z,3.87
2019-03-19T02:38:08.539Z,3.70
2019-03-19T02:40:36.093Z,4.77
2019-03-19T02:43:03.779Z,2.57
2019-03-19T02:45:32.043Z,5.07
2019-03-19T02:48:00.294Z,6.47
2019-03-19T02:50:27.787Z,3.00
2019-03-19T02:52:55.255Z,6.23
2019-03-19T02:55:22.812Z,5.40
2019-03-19T02:57:50.300Z,2.80
2019-03-19T03:00:18.520Z,6.00
2019-03-19T03:02:45.985Z,3.53
2019-03-19T03:05:13.466Z,5.93
2019-03-19T03:07:40.927Z,3.67
2019-03-19T03:10:09.052Z,5.43
2019-03-19T03:12:36.514Z,5.07
2019-03-19T03:15:04.002Z,4.43
2019-03-19T03:17:31.475Z,3.83
2019-03-19T03:19:58.932Z,2.97
2019-03-19T03:22:26.420Z,3.33
2019-03-19T03:24:53.889Z,4.33
2019-03-19T03:27:21.371Z,5.20
2019-03-19T03:29:49.619Z,6.57
2019-03-19T03:32:17.139Z,4.03
2019-03-19T03:34:44.644Z,5.50
2019-03-19T03:37:12.217Z,3.30
2019-03-19T03:39:39.674Z,8.33
2019-03-19T03:42:07.246Z,3.60
2019-03-19T03:44:34.713Z,5.40
2019-03-19T03:47:02.181Z,3.03
2019-03-19T03:49:30.407Z,4.53
2019-03-19T03:51:57.915Z,2.63
2019-03-19T03:54:25.493Z,4.17
2019-03-19T03:57:01.996Z,3.00
2019-03-19T03:59:21.204Z,4.73
2019-03-19T04:01:48.681Z,5.73
2019-03-19T04:04:16.248Z,4.37
2019-03-19T04:06:43.733Z,6.47
2019-03-19T04:09:11.957Z,2.80
2019-03-19T04:11:39.492Z,4.77
2019-03-19T04:14:06.987Z,2.77
2019-03-19T04:16:34.444Z,4.27
2019-03-19T04:19:01.966Z,4.70
2019-03-19T04:21:30.192Z,2.73
2019-03-19T04:23:57.682Z,4.53
2019-03-19T04:26:25.147Z,4.50
2019-03-19T04:28:52.706Z,5.73
2019-03-19T04:31:20.184Z,2.67
2019-03-19T04:33:48.442Z,2.73
2019-03-19T04:36:16.004Z,3.57
2019-03-19T04:38:43.456Z,4.73
2019-03-19T04:41:10.928Z,3.20
2019-03-19T04:43:38.382Z,4.03
2019-03-19T04:46:05.865Z,3.33
2019-03-19T04:48:33.336Z,4.47
2019-03-19T04:51:01.561Z,3.03
2019-03-19T04:53:29.026Z,3.40
2019-03-19T04:55:56.549Z,2.50
2019-03-19T04:58:24.773Z,4.47
2019-03-19T05:00:52.260Z,3.80
2019-03-19T05:03:19.722Z,3.50
2019-03-19T05:05:48.690Z,4.97
2019-03-19T05:08:16.151Z,2.17
2019-03-19T05:10:43.623Z,3.07
2019-03-19T05:13:11.110Z,3.43
2019-03-19T05:15:38.664Z,5.03
2019-03-19T05:18:07.671Z,3.13
2019-03-19T05:20:36.633Z,3.47
2019-03-19T05:23:04.120Z,3.83
2019-03-19T05:25:32.415Z,5.03
2019-03-19T05:28:00.700Z,6.17
2019-03-19T05:30:28.267Z,4.70
2019-03-19T05:32:57.433Z,12.23
2019-03-19T05:35:24.909Z,5.27
2019-03-19T05:37:52.368Z,4.90
2019-03-19T05:40:19.877Z,3.37
2019-03-19T05:42:47.397Z,3.37
2019-03-19T05:45:14.984Z,5.00
2019-03-19T05:47:43.239Z,2.77
2019-03-19T05:50:13.647Z,4.78
2019-03-19T05:52:41.131Z,4.03
2019-03-19T05:55:09.351Z,4.70
2019-03-19T05:57:48.207Z,2.63
2019-03-19T06:00:05.853Z,5.23
2019-03-19T06:02:33.348Z,4.17
2019-03-19T06:05:01.612Z,3.60
2019-03-19T06:07:29.095Z,3.83
2019-03-19T06:09:57.398Z,6.07
2019-03-19T06:12:24.859Z,3.30
2019-03-19T06:14:52.322Z,13.23
2019-03-19T06:17:19.841Z,8.60
2019-03-19T06:19:47.418Z,8.17
2019-03-19T06:22:15.638Z,6.57
2019-03-19T06:24:43.158Z,6.43
2019-03-19T06:27:10.652Z,3.83
2019-03-19T06:29:38.167Z,4.10
2019-03-19T06:32:05.662Z,4.60
2019-03-19T06:34:33.887Z,5.93
2019-03-19T06:37:01.358Z,5.67
2019-03-19T06:39:28.936Z,5.83
2019-03-19T06:41:56.557Z,6.63
2019-03-19T06:44:24.070Z,3.97
2019-03-19T06:46:51.540Z,6.00
2019-03-19T06:49:19.852Z,5.87
2019-03-19T06:51:48.074Z,8.07
2019-03-19T06:54:15.544Z,6.37
2019-03-19T06:56:43.014Z,5.10
2019-03-19T06:59:10.479Z,5.72
2019-03-19T07:01:37.977Z,5.07
2019-03-19T07:04:05.425Z,4.47
2019-03-19T07:06:33.683Z,4.00
2019-03-19T07:09:03.710Z,5.23
2019-03-19T07:11:32.695Z,4.50
2019-03-19T07:14:00.165Z,5.13
2019-03-19T07:16:28.543Z,5.50
2019-03-19T07:18:56.003Z,5.80
2019-03-19T07:21:23.478Z,5.00
2019-03-19T07:23:50.996Z,10.97
2019-03-19T07:26:18.493Z,6.60
2019-03-19T07:28:46.782Z,4.87
2019-03-19T07:31:14.352Z,7.37
2019-03-19T07:33:42.589Z,7.83
2019-03-19T07:36:10.133Z,7.03
2019-03-19T07:38:37.691Z,8.50
2019-03-19T07:41:05.152Z,6.43
2019-03-19T07:43:32.669Z,6.83
2019-03-19T07:46:00.245Z,8.50
2019-03-19T07:48:27.707Z,6.73
2019-03-19T07:50:55.176Z,8.67
2019-03-19T07:53:23.443Z,6.77
2019-03-19T07:55:53.498Z,6.57
2019-03-19T07:58:19.227Z,6.93
2019-03-19T08:00:46.698Z,10.03
2019-03-19T08:03:16.335Z,10.37
2019-03-19T08:05:41.658Z,11.57
2019-03-19T08:08:09.136Z,8.27
2019-03-19T08:10:36.651Z,7.33
2019-03-19T08:13:04.870Z,6.40
2019-03-19T08:15:32.365Z,11.60
2019-03-19T08:18:00.586Z,9.87
2019-03-19T08:20:28.116Z,9.47
2019-03-19T08:22:55.652Z,10.43
2019-03-19T08:25:23.888Z,7.97
2019-03-19T08:27:52.216Z,13.60
2019-03-19T08:30:24.452Z,8.10
2019-03-19T08:32:50.703Z,8.73
2019-03-19T08:35:18.174Z,12.70
2019-03-19T08:37:45.715Z,11.17
2019-03-19T08:40:14.041Z,12.40
2019-03-19T08:42:42.302Z,10.33
2019-03-19T08:45:09.754Z,12.93
2019-03-19T08:47:38.499Z,13.67
2019-03-19T08:50:04.761Z,14.53
2019-03-19T08:52:32.227Z,19.37
2019-03-19T08:54:59.721Z,18.73
2019-03-19T08:57:27.947Z,16.27
2019-03-19T08:59:57.104Z,10.07
2019-03-19T09:02:22.965Z,20.63
2019-03-19T09:04:50.442Z,18.17
2019-03-19T09:07:20.100Z,12.70
2019-03-19T09:09:45.487Z,20.97
2019-03-19T09:12:12.951Z,21.33
2019-03-19T09:14:40.529Z,13.67
2019-03-19T09:17:08.110Z,21.95
2019-03-19T09:19:36.366Z,17.77
2019-03-19T09:22:03.969Z,21.20
2019-03-19T09:24:32.225Z,20.50
2019-03-19T09:26:59.701Z,20.57
2019-03-19T09:29:28.064Z,16.30
2019-03-19T09:31:55.538Z,20.07
2019-03-19T09:34:23.767Z,18.53
2019-03-19T09:36:57.190Z,21.37
2019-03-19T09:39:19.545Z,20.87
2019-03-19T09:41:47.011Z,17.70
2019-03-19T09:44:14.497Z,20.60
2019-03-19T09:46:42.737Z,22.40
2019-03-19T09:49:10.747Z,14.80
2019-03-19T09:51:38.254Z,18.70
2019-03-19T09:54:05.740Z,21.47
2019-03-19T09:56:33.312Z,28.93
2019-03-19T09:59:01.594Z,21.53
2019-03-19T10:01:29.052Z,25.37
2019-03-19T10:03:56.627Z,21.60
2019-03-19T10:06:24.890Z,25.93
2019-03-19T10:08:52.485Z,22.63
2019-03-19T10:11:20.736Z,21.27
2019-03-19T10:13:49.734Z,27.20
2019-03-19T10:16:17.220Z,21.30
2019-03-19T10:18:44.677Z,25.87
2019-03-19T10:21:12.920Z,23.17
2019-03-19T10:23:40.411Z,22.03
2019-03-19T10:26:08.660Z,26.27
2019-03-19T10:28:36.136Z,23.00
2019-03-19T10:31:04.408Z,23.00
2019-03-19T10:33:31.895Z,23.10
2019-03-19T10:35:59.423Z,18.43
2019-03-19T10:38:26.920Z,16.83
2019-03-19T10:40:55.179Z,20.63
2019-03-19T10:43:22.760Z,18.07
2019-03-19T10:45:50.241Z,17.67
2019-03-19T10:48:18.503Z,15.03
2019-03-19T10:50:46.063Z,20.77
2019-03-19T10:53:13.624Z,16.83
2019-03-19T10:55:41.173Z,15.23
2019-03-19T10:58:11.268Z,16.43
2019-03-19T11:00:36.252Z,24.83
2019-03-19T11:03:04.539Z,20.10
2019-03-19T11:05:32.070Z,17.97
2019-03-19T11:08:00.412Z,15.97
2019-03-19T11:10:27.924Z,21.23
2019-03-19T11:12:55.475Z,18.30
2019-03-19T11:15:25.782Z,17.80
2019-03-19T11:17:53.351Z,17.27
2019-03-19T11:20:20.830Z,18.60
2019-03-19T11:22:48.307Z,18.67
2019-03-19T11:25:31.432Z,16.67
2019-03-19T11:27:59.671Z,15.13
2019-03-19T11:30:27.137Z,16.23
2019-03-19T11:32:54.719Z,13.30
2019-03-19T11:35:23.695Z,17.97
2019-03-19T11:37:51.173Z,11.20
2019-03-19T11:40:18.659Z,12.83
2019-03-19T11:42:46.894Z,13.57
2019-03-19T11:45:15.908Z,13.33
2019-03-19T11:47:44.134Z,9.93
2019-03-19T11:50:24.122Z,10.60
2019-03-19T11:52:51.596Z,13.90
2019-03-19T11:55:20.346Z,9.90
2019-03-19T11:57:47.812Z,11.10
2019-03-19T12:00:19.791Z,13.63
2019-03-19T12:02:47.329Z,11.07
2019-03-19T12:05:14.811Z,15.20
2019-03-19T12:07:42.274Z,9.70
2019-03-19T12:10:09.765Z,10.10
2019-03-19T12:12:37.232Z,7.67
2019-03-19T12:15:05.674Z,8.50
2019-03-19T12:17:33.147Z,10.73
2019-03-19T12:20:00.834Z,11.27
2019-03-19T12:22:28.128Z,7.00
2019-03-19T12:24:56.360Z,6.73
2019-03-19T12:27:23.839Z,8.97
2019-03-19T12:29:51.411Z,8.67
2019-03-19T12:32:18.874Z,6.27
2019-03-19T12:34:46.338Z,5.63
2019-03-19T12:37:13.811Z,5.27
2019-03-19T12:39:41.265Z,4.47
2019-03-19T12:42:08.738Z,6.10
2019-03-19T12:44:36.971Z,3.17
2019-03-19T12:47:04.453Z,8.60
2019-03-19T12:49:31.917Z,5.07
2019-03-19T12:51:59.491Z,4.00
2019-03-19T12:54:27.050Z,4.53
2019-03-19T12:56:54.515Z,5.40
2019-03-19T12:59:22.017Z,4.47
2019-03-19T13:01:50.257Z,6.50
2019-03-19T13:04:18.537Z,4.90
2019-03-19T13:06:46.007Z,3.30
2019-03-19T13:09:13.568Z,7.00
2019-03-19T13:11:41.797Z,5.60
2019-03-19T13:14:09.297Z,7.97
2019-03-19T13:16:36.864Z,6.30
2019-03-19T13:19:06.071Z,9.13
2019-03-19T13:21:31.976Z,5.87
2019-03-19T13:23:59.469Z,7.23
2019-03-19T13:26:26.936Z,4.33
2019-03-19T13:28:54.407Z,5.07
2019-03-19T13:31:22.667Z,6.33
2019-03-19T13:33:50.122Z,5.00
2019-03-19T13:36:17.590Z,3.43
2019-03-19T13:38:45.070Z,3.63
2019-03-19T13:41:13.313Z,2.83
2019-03-19T13:43:40.795Z,7.67
2019-03-19T13:46:08.353Z,2.83
2019-03-19T13:48:35.813Z,3.00
2019-03-19T13:51:04.181Z,4.83
2019-03-19T13:53:31.666Z,3.63
2019-03-19T13:55:59.141Z,2.03
2019-03-19T13:58:27.370Z,5.87
2019-03-19T14:00:55.883Z,5.40
2019-03-19T14:03:22.430Z,3.77
2019-03-19T14:05:49.945Z,3.67
2019-03-19T14:08:18.055Z,2.53
2019-03-19T14:10:45.104Z,4.20
2019-03-19T14:13:12.570Z,3.33
2019-03-19T14:15:40.050Z,2.03
2019-03-19T14:18:07.613Z,3.73
2019-03-19T14:20:35.199Z,2.83
2019-03-19T14:23:04.406Z,3.97
2019-03-19T14:25:32.641Z,2.60
2019-03-19T14:28:00.284Z,4.30
2019-03-19T14:30:27.746Z,5.33
2019-03-19T14:32:55.225Z,3.13
2019-03-19T14:35:22.691Z,2.10
2019-03-19T14:37:50.271Z,3.83
2019-03-19T14:40:19.726Z,5.53
2019-03-19T14:42:47.185Z,5.20
2019-03-19T14:45:14.661Z,5.80
2019-03-19T14:47:42.211Z,3.97
2019-03-19T14:50:18.543Z,5.07
2019-03-19T14:52:46.010Z,3.13
2019-03-19T14:55:13.555Z,4.40
2019-03-19T14:57:41.048Z,4.67
2019-03-19T15:00:11.921Z,5.57
2019-03-19T15:02:39.475Z,3.20
2019-03-19T15:05:06.983Z,4.40
2019-03-19T15:07:34.480Z,3.23
2019-03-19T15:10:02.778Z,4.10
2019-03-19T15:12:30.229Z,4.53
2019-03-19T15:14:58.497Z,5.23
2019-03-19T15:17:26.753Z,4.67
2019-03-19T15:19:54.271Z,4.93
2019-03-19T15:22:31.868Z,3.50
2019-03-19T15:24:50.014Z,5.97
2019-03-19T15:27:17.484Z,4.43
2019-03-19T15:29:44.943Z,3.90
2019-03-19T15:32:12.437Z,4.47
2019-03-19T15:34:39.898Z,5.00
2019-03-19T15:37:07.497Z,3.50
2019-03-19T15:39:35.803Z,2.83
2019-03-19T15:42:03.857Z,5.22
2019-03-19T15:44:32.119Z,3.67
2019-03-19T15:46:59.638Z,2.63
2019-03-19T15:49:37.596Z,3.03
2019-03-19T15:51:54.637Z,5.30
2019-03-19T15:54:22.910Z,5.27
2019-03-19T15:56:51.144Z,5.83
2019-03-19T15:59:18.616Z,6.27
2019-03-19T16:01:46.098Z,5.10
2019-03-19T16:04:13.559Z,4.33
2019-03-19T16:06:41.111Z,3.97
2019-03-19T16:09:08.660Z,5.77
2019-03-19T16:11:36.115Z,8.30
2019-03-19T16:14:04.487Z,6.53
2019-03-19T16:16:31.966Z,5.37
2019-03-19T16:18:59.419Z,5.10
2019-03-19T16:21:26.897Z,3.50
2019-03-19T16:23:54.458Z,6.70
2019-03-19T16:26:21.929Z,5.18
2019-03-19T16:28:50.164Z,5.20
2019-03-19T16:31:17.631Z,3.83
2019-03-19T16:33:45.952Z,7.10
2019-03-19T16:36:14.938Z,4.47
2019-03-19T16:38:42.424Z,7.37
2019-03-19T16:41:09.971Z,5.50
2019-03-19T16:43:37.493Z,6.13
2019-03-19T16:46:04.954Z,3.83
2019-03-19T16:48:32.459Z,7.53
2019-03-19T16:50:59.914Z,6.53
2019-03-19T16:53:27.494Z,4.90
2019-03-19T16:55:54.950Z,5.97
2019-03-19T16:58:22.422Z,5.87
2019-03-19T17:00:49.970Z,5.57
2019-03-19T17:03:17.549Z,7.27
2019-03-19T17:05:45.017Z,4.30
2019-03-19T17:08:12.523Z,7.23
2019-03-19T17:10:39.985Z,10.27
2019-03-19T17:13:07.471Z,8.10
2019-03-19T17:15:35.140Z,5.40
2019-03-19T17:18:03.526Z,6.97
2019-03-19T17:20:30.989Z,6.70
2019-03-19T17:22:58.464Z,7.47
2019-03-19T17:25:26.041Z,10.53
2019-03-19T17:27:53.500Z,9.77
2019-03-19T17:30:24.638Z,6.83
2019-03-19T17:32:52.095Z,9.37
2019-03-19T17:35:19.564Z,6.90
2019-03-19T17:37:47.847Z,5.20
2019-03-19T17:40:16.882Z,6.17
2019-03-19T17:42:44.374Z,8.63
2019-03-19T17:45:12.733Z,6.20
2019-03-19T17:47:40.205Z,7.77
2019-03-19T17:50:13.204Z,7.03
2019-03-19T17:52:40.700Z,6.80
2019-03-19T17:55:08.263Z,6.57
2019-03-19T17:57:36.862Z,6.80
2019-03-19T18:00:05.052Z,6.40
2019-03-19T18:02:33.316Z,8.30
2019-03-19T18:05:00.786Z,10.83
2019-03-19T18:07:29.045Z,5.77
2019-03-19T18:09:56.510Z,7.50
2019-03-19T18:12:24.094Z,6.17
2019-03-19T18:14:51.594Z,6.23
2019-03-19T18:17:19.084Z,8.90
2019-03-19T18:19:46.529Z,7.23
2019-03-19T18:22:14.043Z,8.57
2019-03-19T18:24:41.510Z,8.40
2019-03-19T18:27:09.773Z,9.87
2019-03-19T18:29:37.241Z,7.20
2019-03-19T18:32:04.725Z,7.73
2019-03-19T18:34:32.979Z,7.13
2019-03-19T18:37:00.857Z,10.17
2019-03-19T18:39:28.372Z,9.23
2019-03-19T18:41:55.831Z,7.40
2019-03-19T18:44:23.300Z,6.50
2019-03-19T18:46:50.864Z,10.87
2019-03-19T18:49:18.339Z,8.57
2019-03-19T18:51:45.823Z,9.13
2019-03-19T18:54:14.415Z,5.80
2019-03-19T18:56:42.684Z,8.23
2019-03-19T18:59:10.258Z,7.50
2019-03-19T19:01:38.545Z,6.57
2019-03-19T19:04:06.032Z,7.90
2019-03-19T19:06:34.284Z,8.50
2019-03-19T19:09:02.503Z,9.10
2019-03-19T19:11:30.026Z,9.23
2019-03-19T19:13:57.491Z,10.93
2019-03-19T19:16:25.072Z,9.87
2019-03-19T19:18:53.449Z,9.50
2019-03-19T19:21:22.064Z,10.20
2019-03-19T19:23:49.526Z,9.17
2019-03-19T19:26:17.005Z,8.00
2019-03-19T19:28:44.459Z,8.17
2019-03-19T19:31:12.253Z,8.43
2019-03-19T19:33:39.738Z,8.47
2019-03-19T19:36:07.301Z,14.83
2019-03-19T19:38:34.772Z,8.40
2019-03-19T19:41:04.303Z,9.37
2019-03-19T19:43:32.556Z,11.00
2019-03-19T19:46:00.459Z,9.17
2019-03-19T19:48:28.692Z,10.33
2019-03-19T19:50:56.153Z,10.87
2019-03-19T19:53:23.651Z,13.10
2019-03-19T19:55:51.899Z,10.67
2019-03-19T19:58:19.467Z,12.10
2019-03-19T20:00:46.944Z,15.73
2019-03-19T20:03:14.416Z,11.65
2019-03-19T20:05:41.898Z,8.17
2019-03-19T20:08:09.365Z,8.70
2019-03-19T20:10:36.822Z,9.63
2019-03-19T20:13:04.305Z,11.30
2019-03-19T20:15:31.796Z,12.30
2019-03-19T20:17:59.280Z,7.70
2019-03-19T20:20:28.703Z,8.93
2019-03-19T20:22:56.959Z,9.80
2019-03-19T20:25:24.438Z,10.73
2019-03-19T20:27:52.744Z,11.30
2019-03-19T20:30:24.143Z,11.80
2019-03-19T20:32:51.628Z,9.20
2019-03-19T20:35:19.857Z,9.30
2019-03-19T20:37:47.335Z,9.70
2019-03-19T20:40:14.831Z,10.77
2019-03-19T20:42:43.139Z,9.60
2019-03-19T20:45:14.730Z,10.90
2019-03-19T20:47:42.210Z,10.10
2019-03-19T20:50:12.442Z,11.40
2019-03-19T20:52:39.917Z,8.83
2019-03-19T20:55:07.458Z,9.80
2019-03-19T20:57:35.046Z,10.57
2019-03-19T21:00:02.603Z,10.47
2019-03-19T21:02:30.190Z,9.13
2019-03-19T21:04:58.441Z,10.93
2019-03-19T21:07:25.913Z,10.83
2019-03-19T21:09:53.718Z,11.87
2019-03-19T21:12:22.799Z,9.00
2019-03-19T21:14:51.093Z,12.87
2019-03-19T21:17:19.418Z,10.53
2019-03-19T21:19:46.948Z,8.83
2019-03-19T21:22:14.607Z,9.80
2019-03-19T21:24:42.080Z,9.37
2019-03-19T21:27:09.553Z,13.90
2019-03-19T21:29:37.038Z,9.03
2019-03-19T21:32:04.685Z,8.93
2019-03-19T21:34:32.141Z,8.67
2019-03-19T21:36:59.624Z,11.03
2019-03-19T21:39:27.146Z,10.43
2019-03-19T21:41:54.674Z,8.10
2019-03-19T21:44:22.131Z,12.10
2019-03-19T21:46:51.353Z,11.83
2019-03-19T21:49:19.601Z,9.50
2019-03-19T21:51:47.179Z,8.67
2019-03-19T21:54:14.635Z,10.57
2019-03-19T21:56:43.605Z,9.57
2019-03-19T21:59:11.077Z,8.80
2019-03-19T22:01:38.542Z,8.37
2019-03-19T22:04:06.028Z,9.80
2019-03-19T22:06:33.588Z,8.97
2019-03-19T22:09:01.091Z,10.53
2019-03-19T22:11:28.563Z,11.60
2019-03-19T22:13:56.028Z,9.30
2019-03-19T22:16:23.486Z,11.07
2019-03-19T22:18:51.211Z,11.40
2019-03-19T22:21:18.773Z,10.80
2019-03-19T22:23:46.255Z,9.17
2019-03-19T22:26:14.495Z,11.23
2019-03-19T22:28:41.972Z,12.40
2019-03-19T22:31:09.436Z,10.17
2019-03-19T22:33:37.682Z,12.20
2019-03-19T22:36:05.163Z,15.47
2019-03-19T22:38:32.741Z,9.67
2019-03-19T22:41:01.726Z,12.50
2019-03-19T22:43:29.202Z,10.77
2019-03-19T22:45:56.676Z,12.27
2019-03-19T22:48:24.953Z,11.47
2019-03-19T22:50:52.498Z,12.60
2019-03-19T22:53:19.976Z,11.57
2019-03-19T22:55:47.535Z,9.57
2019-03-19T22:58:15.021Z,10.83
2019-03-19T23:00:44.193Z,10.47
2019-03-19T23:03:11.657Z,12.33
2019-03-19T23:05:39.223Z,9.87
2019-03-19T23:08:06.698Z,13.97
2019-03-19T23:10:35.032Z,13.50
2019-03-19T23:13:02.526Z,13.50
2019-03-19T23:15:30.017Z,10.53
2019-03-19T23:17:58.276Z,11.03
2019-03-19T23:20:25.837Z,16.47
2019-03-19T23:22:53.359Z,14.20
2019-03-19T23:25:20.822Z,15.40
2019-03-19T23:27:48.309Z,11.53
2019-03-19T23:30:15.784Z,12.70
2019-03-19T23:32:43.246Z,11.30
2019-03-19T23:35:10.715Z,10.57
2019-03-19T23:37:38.171Z,14.07
2019-03-19T23:40:05.649Z,13.73
2019-03-19T23:42:33.904Z,12.43
2019-03-19T23:45:01.469Z,12.63
2019-03-19T23:47:30.445Z,13.67
2019-03-19T23:49:57.926Z,17.33
2019-03-19T23:52:25.396Z,12.53
2019-03-19T23:54:52.954Z,16.03
2019-03-19T23:57:20.514Z,12.57
2019-03-19T23:59:47.988Z,13.90
